In Rescue
 
Open Full Screen Window  High Contrast Mode
Wind Gusting 00 knots
07
March 20, 2019 10:06 PM EDT
Present Weather: Light Rain
Weather Information
Wind Direction
  140 °
Wind Speed
  07 kt (8 mph)
Wind Gust
  00 kt (0 mph)
Altimeter
29.97 in
Visibility
4 SM
Temperature
03° C
37° F
Dewpoint
03° C
37° F
Humidity
100%
1hr Rain Fall
00.00 in.
24hr Rain Fall
00.10 in.
Sky Condition
Overcast @ 1,300 ft
Broken @ 900 ft
IFR

METAR KD95 210206Z AUTO 14007KT 4SM -RA BKN009 OVC013 03/03 A2997 RMK AO2 T00300027

FAA Disclaimer: The data displayed is for advisory purposes only and is not to be used for flight planning or operations.